Terminal Aerodrome Forecast
Issued by NWS

Current Version | Previous Version | Text Only | Print | Product List | Glossary Off
Versions: 1 2 3 4 5 6 7 8 9 10 11 12 13 14 15 16

000
FTUS41 KRNK 181722
TAFLWB
TAF
KLWB 181722Z 1818/1918 25008KT P6SM -SHRA VCTS SCT025 BKN035CB
      TEMPO 1818/1821 3SM TSRA OVC025CB
     FM182100 27007KT P6SM VCTS BKN050CB
     FM182300 28007KT P6SM SCT040
     FM191100 00000KT 1SM BR FEW015
     FM191300 00000KT P6SM FEW250=

USA.gov is the U.S. government's official web portal to all federal, state and local government web resources and services.